sensor_id;sensor_type;location;lat;lon;timestamp;P1;durP1;ratioP1;P2;durP2;ratioP2
22026;SDS011;11177;50.966;10.070;2023-07-22T00:00:49;5.93;;;3.70;;
22026;SDS011;11177;50.966;10.070;2023-07-22T00:03:16;5.25;;;4.00;;
22026;SDS011;11177;50.966;10.070;2023-07-22T00:05:43;6.15;;;4.10;;
22026;SDS011;11177;50.966;10.070;2023-07-22T00:08:13;4.40;;;4.00;;
22026;SDS011;11177;50.966;10.070;2023-07-22T00:10:40;4.57;;;3.53;;
22026;SDS011;11177;50.966;10.070;2023-07-22T00:13:08;6.50;;;4.15;;
22026;SDS011;11177;50.966;10.070;2023-07-22T00:15:36;4.20;;;3.80;;
22026;SDS011;11177;50.966;10.070;2023-07-22T00:18:03;7.25;;;4.60;;
22026;SDS011;11177;50.966;10.070;2023-07-22T00:20:30;6.32;;;3.90;;
22026;SDS011;11177;50.966;10.070;2023-07-22T00:22:56;4.40;;;4.10;;
22026;SDS011;11177;50.966;10.070;2023-07-22T00:25:24;4.95;;;4.45;;
22026;SDS011;11177;50.966;10.070;2023-07-22T00:27:51;4.43;;;4.03;;
22026;SDS011;11177;50.966;10.070;2023-07-22T00:30:18;5.85;;;4.20;;
22026;SDS011;11177;50.966;10.070;2023-07-22T00:32:44;5.03;;;4.25;;
22026;SDS011;11177;50.966;10.070;2023-07-22T00:35:12;5.03;;;4.15;;
22026;SDS011;11177;50.966;10.070;2023-07-22T00:37:39;6.57;;;4.20;;
22026;SDS011;11177;50.966;10.070;2023-07-22T00:40:06;5.22;;;4.35;;
22026;SDS011;11177;50.966;10.070;2023-07-22T00:42:39;7.05;;;4.40;;
22026;SDS011;11177;50.966;10.070;2023-07-22T00:45:06;6.60;;;4.40;;
22026;SDS011;11177;50.966;10.070;2023-07-22T00:47:34;5.50;;;4.20;;
22026;SDS011;11177;50.966;10.070;2023-07-22T00:50:02;5.45;;;4.47;;
22026;SDS011;11177;50.966;10.070;2023-07-22T00:52:30;5.30;;;4.78;;
22026;SDS011;11177;50.966;10.070;2023-07-22T00:58:34;5.68;;;4.88;;
22026;SDS011;11177;50.966;10.070;2023-07-22T01:01:01;8.07;;;4.65;;
22026;SDS011;11177;50.966;10.070;2023-07-22T01:03:28;6.38;;;4.75;;
22026;SDS011;11177;50.966;10.070;2023-07-22T01:05:54;7.05;;;4.60;;
22026;SDS011;11177;50.966;10.070;2023-07-22T01:08:21;6.60;;;4.65;;
22026;SDS011;11177;50.966;10.070;2023-07-22T01:10:48;5.90;;;5.30;;
22026;SDS011;11177;50.966;10.070;2023-07-22T01:13:15;6.35;;;4.90;;
22026;SDS011;11177;50.966;10.070;2023-07-22T01:15:42;9.20;;;5.22;;
22026;SDS011;11177;50.966;10.070;2023-07-22T01:18:09;7.88;;;5.07;;
22026;SDS011;11177;50.966;10.070;2023-07-22T01:20:36;6.35;;;4.70;;
22026;SDS011;11177;50.966;10.070;2023-07-22T01:23:03;5.47;;;4.90;;
22026;SDS011;11177;50.966;10.070;2023-07-22T01:25:30;5.28;;;4.78;;
22026;SDS011;11177;50.966;10.070;2023-07-22T01:27:56;6.88;;;5.03;;
22026;SDS011;11177;50.966;10.070;2023-07-22T01:30:23;5.65;;;5.00;;
22026;SDS011;11177;50.966;10.070;2023-07-22T01:32:50;11.70;;;5.30;;
22026;SDS011;11177;50.966;10.070;2023-07-22T01:35:17;6.07;;;5.22;;
22026;SDS011;11177;50.966;10.070;2023-07-22T01:37:44;5.72;;;5.00;;
22026;SDS011;11177;50.966;10.070;2023-07-22T01:40:11;6.20;;;5.07;;
22026;SDS011;11177;50.966;10.070;2023-07-22T01:42:39;6.93;;;5.22;;
22026;SDS011;11177;50.966;10.070;2023-07-22T01:45:06;8.45;;;5.80;;
22026;SDS011;11177;50.966;10.070;2023-07-22T01:47:34;7.28;;;5.30;;
22026;SDS011;11177;50.966;10.070;2023-07-22T01:50:02;7.45;;;5.10;;
22026;SDS011;11177;50.966;10.070;2023-07-22T01:52:30;8.18;;;5.57;;
22026;SDS011;11177;50.966;10.070;2023-07-22T01:54:57;7.75;;;5.65;;
22026;SDS011;11177;50.966;10.070;2023-07-22T01:57:23;11.15;;;5.95;;
22026;SDS011;11177;50.966;10.070;2023-07-22T01:59:50;9.80;;;6.32;;
22026;SDS011;11177;50.966;10.070;2023-07-22T02:02:18;8.60;;;5.68;;
22026;SDS011;11177;50.966;10.070;2023-07-22T02:04:45;9.82;;;5.90;;
22026;SDS011;11177;50.966;10.070;2023-07-22T02:07:12;10.15;;;6.07;;
22026;SDS011;11177;50.966;10.070;2023-07-22T02:09:40;8.32;;;5.97;;
22026;SDS011;11177;50.966;10.070;2023-07-22T02:12:07;8.18;;;5.32;;
22026;SDS011;11177;50.966;10.070;2023-07-22T02:14:34;7.57;;;6.07;;
22026;SDS011;11177;50.966;10.070;2023-07-22T02:17:01;7.43;;;6.07;;
22026;SDS011;11177;50.966;10.070;2023-07-22T02:19:28;10.82;;;6.47;;
22026;SDS011;11177;50.966;10.070;2023-07-22T02:21:55;9.15;;;6.15;;
22026;SDS011;11177;50.966;10.070;2023-07-22T02:24:22;8.70;;;6.30;;
22026;SDS011;11177;50.966;10.070;2023-07-22T02:26:49;8.52;;;6.18;;
22026;SDS011;11177;50.966;10.070;2023-07-22T02:29:16;12.23;;;6.70;;
22026;SDS011;11177;50.966;10.070;2023-07-22T02:31:44;11.77;;;6.97;;
22026;SDS011;11177;50.966;10.070;2023-07-22T02:34:13;11.70;;;6.30;;
22026;SDS011;11177;50.966;10.070;2023-07-22T02:36:39;7.82;;;6.07;;
22026;SDS011;11177;50.966;10.070;2023-07-22T02:39:06;10.00;;;6.13;;
22026;SDS011;11177;50.966;10.070;2023-07-22T02:41:36;13.30;;;6.13;;
22026;SDS011;11177;50.966;10.070;2023-07-22T02:44:03;9.88;;;6.10;;
22026;SDS011;11177;50.966;10.070;2023-07-22T02:46:30;10.25;;;6.57;;
22026;SDS011;11177;50.966;10.070;2023-07-22T02:48:58;9.60;;;6.13;;
22026;SDS011;11177;50.966;10.070;2023-07-22T02:51:25;7.15;;;5.80;;
22026;SDS011;11177;50.966;10.070;2023-07-22T02:53:52;10.50;;;6.43;;
22026;SDS011;11177;50.966;10.070;2023-07-22T02:56:19;9.90;;;6.30;;
22026;SDS011;11177;50.966;10.070;2023-07-22T02:58:46;10.05;;;6.05;;
22026;SDS011;11177;50.966;10.070;2023-07-22T03:01:13;9.98;;;6.10;;
22026;SDS011;11177;50.966;10.070;2023-07-22T03:03:40;8.70;;;6.50;;
22026;SDS011;11177;50.966;10.070;2023-07-22T03:06:07;10.95;;;6.40;;
22026;SDS011;11177;50.966;10.070;2023-07-22T03:08:36;11.50;;;6.57;;
22026;SDS011;11177;50.966;10.070;2023-07-22T03:11:03;8.82;;;6.07;;
22026;SDS011;11177;50.966;10.070;2023-07-22T03:13:30;9.50;;;5.63;;
22026;SDS011;11177;50.966;10.070;2023-07-22T03:15:57;7.90;;;6.20;;
22026;SDS011;11177;50.966;10.070;2023-07-22T03:18:24;7.38;;;6.10;;
22026;SDS011;11177;50.966;10.070;2023-07-22T03:20:51;13.15;;;6.40;;
22026;SDS011;11177;50.966;10.070;2023-07-22T03:23:18;10.13;;;6.65;;
22026;SDS011;11177;50.966;10.070;2023-07-22T03:25:47;11.82;;;6.20;;
22026;SDS011;11177;50.966;10.070;2023-07-22T03:28:14;12.23;;;6.68;;
22026;SDS011;11177;50.966;10.070;2023-07-22T03:30:41;10.68;;;6.50;;
22026;SDS011;11177;50.966;10.070;2023-07-22T03:33:08;10.77;;;6.57;;
22026;SDS011;11177;50.966;10.070;2023-07-22T03:35:35;11.80;;;6.90;;
22026;SDS011;11177;50.966;10.070;2023-07-22T03:38:03;11.15;;;6.15;;
22026;SDS011;11177;50.966;10.070;2023-07-22T03:40:31;10.35;;;5.95;;
22026;SDS011;11177;50.966;10.070;2023-07-22T03:42:59;10.38;;;6.15;;
22026;SDS011;11177;50.966;10.070;2023-07-22T03:45:26;8.45;;;5.90;;
22026;SDS011;11177;50.966;10.070;2023-07-22T03:47:55;8.68;;;5.95;;
22026;SDS011;11177;50.966;10.070;2023-07-22T03:50:23;11.65;;;6.20;;
22026;SDS011;11177;50.966;10.070;2023-07-22T03:52:51;11.85;;;5.82;;
22026;SDS011;11177;50.966;10.070;2023-07-22T03:55:17;7.82;;;6.28;;
22026;SDS011;11177;50.966;10.070;2023-07-22T03:57:46;8.73;;;6.30;;
22026;SDS011;11177;50.966;10.070;2023-07-22T04:00:13;11.15;;;6.60;;
22026;SDS011;11177;50.966;10.070;2023-07-22T04:02:40;11.60;;;6.40;;
22026;SDS011;11177;50.966;10.070;2023-07-22T04:05:07;11.25;;;6.32;;
22026;SDS011;11177;50.966;10.070;2023-07-22T04:07:34;8.27;;;6.47;;
22026;SDS011;11177;50.966;10.070;2023-07-22T04:10:01;9.45;;;6.03;;
22026;SDS011;11177;50.966;10.070;2023-07-22T04:12:30;9.20;;;6.10;;
22026;SDS011;11177;50.966;10.070;2023-07-22T04:14:58;10.30;;;5.93;;
22026;SDS011;11177;50.966;10.070;2023-07-22T04:17:24;10.30;;;6.38;;
22026;SDS011;11177;50.966;10.070;2023-07-22T04:19:52;12.60;;;6.25;;
22026;SDS011;11177;50.966;10.070;2023-07-22T04:22:19;10.43;;;6.20;;
22026;SDS011;11177;50.966;10.070;2023-07-22T04:24:47;9.50;;;5.97;;
22026;SDS011;11177;50.966;10.070;2023-07-22T04:27:17;11.65;;;6.00;;
22026;SDS011;11177;50.966;10.070;2023-07-22T04:29:44;10.25;;;6.10;;
22026;SDS011;11177;50.966;10.070;2023-07-22T04:32:11;14.35;;;6.57;;
22026;SDS011;11177;50.966;10.070;2023-07-22T04:34:38;10.50;;;5.90;;
22026;SDS011;11177;50.966;10.070;2023-07-22T04:37:06;10.10;;;6.20;;
22026;SDS011;11177;50.966;10.070;2023-07-22T04:39:33;12.07;;;6.25;;
22026;SDS011;11177;50.966;10.070;2023-07-22T04:42:00;14.15;;;5.97;;
22026;SDS011;11177;50.966;10.070;2023-07-22T04:44:27;11.18;;;5.97;;
22026;SDS011;11177;50.966;10.070;2023-07-22T04:46:54;9.50;;;6.30;;
22026;SDS011;11177;50.966;10.070;2023-07-22T04:49:21;11.68;;;6.63;;
22026;SDS011;11177;50.966;10.070;2023-07-22T04:51:48;9.38;;;6.70;;
22026;SDS011;11177;50.966;10.070;2023-07-22T04:54:15;8.40;;;6.35;;
22026;SDS011;11177;50.966;10.070;2023-07-22T04:56:42;10.40;;;7.07;;
22026;SDS011;11177;50.966;10.070;2023-07-22T04:59:09;11.80;;;7.32;;
22026;SDS011;11177;50.966;10.070;2023-07-22T05:01:36;10.55;;;7.20;;
22026;SDS011;11177;50.966;10.070;2023-07-22T05:04:03;8.57;;;7.25;;
22026;SDS011;11177;50.966;10.070;2023-07-22T05:06:31;11.15;;;7.72;;
22026;SDS011;11177;50.966;10.070;2023-07-22T05:08:59;10.57;;;7.93;;
22026;SDS011;11177;50.966;10.070;2023-07-22T05:11:26;12.02;;;7.75;;
22026;SDS011;11177;50.966;10.070;2023-07-22T05:13:53;9.52;;;8.48;;
22026;SDS011;11177;50.966;10.070;2023-07-22T05:16:20;9.65;;;7.97;;
22026;SDS011;11177;50.966;10.070;2023-07-22T05:18:48;9.65;;;8.00;;
22026;SDS011;11177;50.966;10.070;2023-07-22T05:21:15;10.55;;;8.32;;
22026;SDS011;11177;50.966;10.070;2023-07-22T05:23:42;13.75;;;8.20;;
22026;SDS011;11177;50.966;10.070;2023-07-22T05:26:09;11.50;;;8.48;;
22026;SDS011;11177;50.966;10.070;2023-07-22T05:28:36;11.73;;;8.43;;
22026;SDS011;11177;50.966;10.070;2023-07-22T05:31:03;11.25;;;8.57;;
22026;SDS011;11177;50.966;10.070;2023-07-22T05:33:30;9.98;;;8.32;;
22026;SDS011;11177;50.966;10.070;2023-07-22T05:35:57;11.75;;;8.48;;
22026;SDS011;11177;50.966;10.070;2023-07-22T05:38:23;13.10;;;8.55;;
22026;SDS011;11177;50.966;10.070;2023-07-22T05:40:51;12.93;;;8.70;;
22026;SDS011;11177;50.966;10.070;2023-07-22T05:43:20;12.82;;;8.20;;
22026;SDS011;11177;50.966;10.070;2023-07-22T05:45:47;12.80;;;8.63;;
22026;SDS011;11177;50.966;10.070;2023-07-22T05:48:14;9.38;;;8.20;;
22026;SDS011;11177;50.966;10.070;2023-07-22T05:50:40;10.20;;;8.05;;
22026;SDS011;11177;50.966;10.070;2023-07-22T05:53:07;10.60;;;8.30;;
22026;SDS011;11177;50.966;10.070;2023-07-22T05:55:34;13.48;;;8.75;;
22026;SDS011;11177;50.966;10.070;2023-07-22T05:58:02;11.02;;;8.15;;
22026;SDS011;11177;50.966;10.070;2023-07-22T06:00:33;11.30;;;7.45;;
22026;SDS011;11177;50.966;10.070;2023-07-22T06:03:00;11.57;;;8.30;;
22026;SDS011;11177;50.966;10.070;2023-07-22T06:05:27;11.63;;;8.07;;
22026;SDS011;11177;50.966;10.070;2023-07-22T06:07:55;13.15;;;8.10;;
22026;SDS011;11177;50.966;10.070;2023-07-22T06:10:24;10.05;;;7.60;;
22026;SDS011;11177;50.966;10.070;2023-07-22T06:12:51;11.65;;;7.82;;
22026;SDS011;11177;50.966;10.070;2023-07-22T06:15:18;12.00;;;8.52;;
22026;SDS011;11177;50.966;10.070;2023-07-22T06:17:45;12.45;;;7.90;;
22026;SDS011;11177;50.966;10.070;2023-07-22T06:20:12;11.15;;;8.13;;
22026;SDS011;11177;50.966;10.070;2023-07-22T06:22:39;11.13;;;7.93;;
22026;SDS011;11177;50.966;10.070;2023-07-22T06:25:06;11.25;;;7.85;;
22026;SDS011;11177;50.966;10.070;2023-07-22T06:27:33;12.50;;;7.72;;
22026;SDS011;11177;50.966;10.070;2023-07-22T06:30:02;13.27;;;8.00;;
22026;SDS011;11177;50.966;10.070;2023-07-22T06:32:29;11.25;;;7.78;;
22026;SDS011;11177;50.966;10.070;2023-07-22T06:34:57;10.82;;;7.70;;
22026;SDS011;11177;50.966;10.070;2023-07-22T06:37:25;10.73;;;7.65;;
22026;SDS011;11177;50.966;10.070;2023-07-22T06:39:52;10.50;;;7.28;;
22026;SDS011;11177;50.966;10.070;2023-07-22T06:42:19;12.23;;;7.60;;
22026;SDS011;11177;50.966;10.070;2023-07-22T06:44:46;11.23;;;7.78;;
22026;SDS011;11177;50.966;10.070;2023-07-22T06:47:13;8.52;;;6.68;;
22026;SDS011;11177;50.966;10.070;2023-07-22T06:49:42;10.63;;;7.10;;
22026;SDS011;11177;50.966;10.070;2023-07-22T06:52:12;10.98;;;7.07;;
22026;SDS011;11177;50.966;10.070;2023-07-22T06:54:39;11.43;;;6.88;;
22026;SDS011;11177;50.966;10.070;2023-07-22T06:57:07;10.95;;;7.18;;
22026;SDS011;11177;50.966;10.070;2023-07-22T06:59:34;9.20;;;6.60;;
22026;SDS011;11177;50.966;10.070;2023-07-22T07:02:01;11.27;;;7.00;;
22026;SDS011;11177;50.966;10.070;2023-07-22T07:04:28;10.48;;;6.47;;
22026;SDS011;11177;50.966;10.070;2023-07-22T07:06:55;7.78;;;6.40;;
22026;SDS011;11177;50.966;10.070;2023-07-22T07:09:22;10.18;;;6.53;;
22026;SDS011;11177;50.966;10.070;2023-07-22T07:11:49;9.50;;;6.72;;
22026;SDS011;11177;50.966;10.070;2023-07-22T07:14:16;10.68;;;6.78;;
22026;SDS011;11177;50.966;10.070;2023-07-22T07:16:43;11.82;;;6.60;;
22026;SDS011;11177;50.966;10.070;2023-07-22T07:19:10;9.55;;;6.70;;
22026;SDS011;11177;50.966;10.070;2023-07-22T07:21:37;8.63;;;6.05;;
22026;SDS011;11177;50.966;10.070;2023-07-22T07:24:04;7.53;;;5.63;;
22026;SDS011;11177;50.966;10.070;2023-07-22T07:26:31;8.63;;;6.28;;
22026;SDS011;11177;50.966;10.070;2023-07-22T07:28:57;7.88;;;6.35;;
22026;SDS011;11177;50.966;10.070;2023-07-22T07:31:24;10.30;;;6.47;;
22026;SDS011;11177;50.966;10.070;2023-07-22T07:33:51;8.88;;;5.60;;
22026;SDS011;11177;50.966;10.070;2023-07-22T07:36:18;6.95;;;5.60;;
22026;SDS011;11177;50.966;10.070;2023-07-22T07:38:45;6.55;;;5.55;;
22026;SDS011;11177;50.966;10.070;2023-07-22T07:41:12;10.10;;;5.57;;
22026;SDS011;11177;50.966;10.070;2023-07-22T07:43:39;9.82;;;5.72;;
22026;SDS011;11177;50.966;10.070;2023-07-22T07:49:03;7.75;;;5.68;;
22026;SDS011;11177;50.966;10.070;2023-07-22T07:51:30;7.68;;;5.65;;
22026;SDS011;11177;50.966;10.070;2023-07-22T07:53:58;10.25;;;5.47;;
22026;SDS011;11177;50.966;10.070;2023-07-22T07:56:26;7.38;;;5.53;;
22026;SDS011;11177;50.966;10.070;2023-07-22T07:58:53;6.28;;;5.57;;
22026;SDS011;11177;50.966;10.070;2023-07-22T08:01:20;6.43;;;5.20;;
22026;SDS011;11177;50.966;10.070;2023-07-22T08:03:48;7.95;;;4.85;;
22026;SDS011;11177;50.966;10.070;2023-07-22T08:06:15;5.88;;;5.07;;
22026;SDS011;11177;50.966;10.070;2023-07-22T08:08:45;9.40;;;5.50;;
22026;SDS011;11177;50.966;10.070;2023-07-22T08:11:13;8.77;;;5.40;;
22026;SDS011;11177;50.966;10.070;2023-07-22T08:13:41;8.07;;;5.15;;
22026;SDS011;11177;50.966;10.070;2023-07-22T08:16:09;6.78;;;4.90;;
22026;SDS011;11177;50.966;10.070;2023-07-22T08:18:37;8.23;;;5.63;;
22026;SDS011;11177;50.966;10.070;2023-07-22T08:21:04;6.32;;;5.15;;
22026;SDS011;11177;50.966;10.070;2023-07-22T08:23:36;6.25;;;5.15;;
22026;SDS011;11177;50.966;10.070;2023-07-22T08:26:03;8.73;;;5.45;;
22026;SDS011;11177;50.966;10.070;2023-07-22T08:28:33;7.75;;;5.35;;
22026;SDS011;11177;50.966;10.070;2023-07-22T08:31:00;10.35;;;5.38;;
22026;SDS011;11177;50.966;10.070;2023-07-22T08:33:28;5.70;;;5.07;;
22026;SDS011;11177;50.966;10.070;2023-07-22T08:36:06;6.18;;;4.78;;
22026;SDS011;11177;50.966;10.070;2023-07-22T08:38:33;6.82;;;4.60;;
22026;SDS011;11177;50.966;10.070;2023-07-22T08:41:00;7.47;;;5.40;;
22026;SDS011;11177;50.966;10.070;2023-07-22T08:43:28;8.43;;;4.80;;
22026;SDS011;11177;50.966;10.070;2023-07-22T08:45:55;7.43;;;4.80;;
22026;SDS011;11177;50.966;10.070;2023-07-22T08:48:26;5.47;;;4.70;;
22026;SDS011;11177;50.966;10.070;2023-07-22T08:51:03;8.07;;;4.47;;
22026;SDS011;11177;50.966;10.070;2023-07-22T08:53:33;4.82;;;4.32;;
22026;SDS011;11177;50.966;10.070;2023-07-22T08:56:00;6.03;;;4.25;;
22026;SDS011;11177;50.966;10.070;2023-07-22T08:58:27;7.60;;;5.45;;
22026;SDS011;11177;50.966;10.070;2023-07-22T09:00:55;8.55;;;4.93;;
22026;SDS011;11177;50.966;10.070;2023-07-22T09:03:22;5.07;;;4.50;;
22026;SDS011;11177;50.966;10.070;2023-07-22T09:05:50;6.93;;;4.80;;
22026;SDS011;11177;50.966;10.070;2023-07-22T09:08:17;5.85;;;5.13;;
22026;SDS011;11177;50.966;10.070;2023-07-22T09:10:44;9.02;;;5.53;;
22026;SDS011;11177;50.966;10.070;2023-07-22T09:13:11;7.03;;;5.35;;
22026;SDS011;11177;50.966;10.070;2023-07-22T09:15:39;8.68;;;5.20;;
22026;SDS011;11177;50.966;10.070;2023-07-22T09:18:07;5.75;;;4.78;;
22026;SDS011;11177;50.966;10.070;2023-07-22T09:20:34;8.38;;;4.85;;
22026;SDS011;11177;50.966;10.070;2023-07-22T09:23:01;5.03;;;4.50;;
22026;SDS011;11177;50.966;10.070;2023-07-22T09:25:39;6.05;;;4.70;;
22026;SDS011;11177;50.966;10.070;2023-07-22T09:28:06;5.75;;;4.97;;
22026;SDS011;11177;50.966;10.070;2023-07-22T09:30:34;6.45;;;4.97;;
22026;SDS011;11177;50.966;10.070;2023-07-22T09:33:10;7.85;;;4.90;;
22026;SDS011;11177;50.966;10.070;2023-07-22T09:35:47;6.15;;;4.50;;
22026;SDS011;11177;50.966;10.070;2023-07-22T09:38:25;5.38;;;4.63;;
22026;SDS011;11177;50.966;10.070;2023-07-22T09:40:52;7.28;;;4.90;;
22026;SDS011;11177;50.966;10.070;2023-07-22T09:43:21;5.05;;;4.30;;
22026;SDS011;11177;50.966;10.070;2023-07-22T09:45:49;8.35;;;4.80;;
22026;SDS011;11177;50.966;10.070;2023-07-22T09:48:16;5.72;;;4.90;;
22026;SDS011;11177;50.966;10.070;2023-07-22T09:50:43;8.23;;;4.65;;
22026;SDS011;11177;50.966;10.070;2023-07-22T09:53:14;6.47;;;4.60;;
22026;SDS011;11177;50.966;10.070;2023-07-22T09:55:42;7.07;;;4.63;;
22026;SDS011;11177;50.966;10.070;2023-07-22T09:58:10;6.22;;;5.28;;
22026;SDS011;11177;50.966;10.070;2023-07-22T10:00:37;6.95;;;4.75;;
22026;SDS011;11177;50.966;10.070;2023-07-22T10:03:10;5.82;;;4.68;;
22026;SDS011;11177;50.966;10.070;2023-07-22T10:05:41;10.65;;;5.03;;
22026;SDS011;11177;50.966;10.070;2023-07-22T10:08:08;13.75;;;4.95;;
22026;SDS011;11177;50.966;10.070;2023-07-22T10:10:39;5.35;;;4.68;;
22026;SDS011;11177;50.966;10.070;2023-07-22T10:13:09;8.15;;;5.07;;
22026;SDS011;11177;50.966;10.070;2023-07-22T10:15:36;7.15;;;5.15;;
22026;SDS011;11177;50.966;10.070;2023-07-22T10:18:04;7.88;;;4.70;;
22026;SDS011;11177;50.966;10.070;2023-07-22T10:20:34;6.18;;;4.70;;
22026;SDS011;11177;50.966;10.070;2023-07-22T10:23:03;5.95;;;4.50;;
22026;SDS011;11177;50.966;10.070;2023-07-22T10:25:30;5.57;;;4.47;;
22026;SDS011;11177;50.966;10.070;2023-07-22T10:27:58;5.75;;;4.15;;
22026;SDS011;11177;50.966;10.070;2023-07-22T10:30:24;6.68;;;4.50;;
22026;SDS011;11177;50.966;10.070;2023-07-22T10:32:52;6.57;;;4.60;;
22026;SDS011;11177;50.966;10.070;2023-07-22T10:38:14;5.75;;;4.45;;
22026;SDS011;11177;50.966;10.070;2023-07-22T10:40:49;6.13;;;4.30;;
22026;SDS011;11177;50.966;10.070;2023-07-22T10:43:17;5.45;;;4.28;;
22026;SDS011;11177;50.966;10.070;2023-07-22T10:45:52;4.18;;;3.78;;
22026;SDS011;11177;50.966;10.070;2023-07-22T10:48:20;6.70;;;4.30;;
22026;SDS011;11177;50.966;10.070;2023-07-22T10:50:52;5.50;;;3.80;;
22026;SDS011;11177;50.966;10.070;2023-07-22T10:53:29;5.47;;;4.05;;
22026;SDS011;11177;50.966;10.070;2023-07-22T10:58:57;5.28;;;4.20;;
22026;SDS011;11177;50.966;10.070;2023-07-22T11:01:33;4.72;;;4.10;;
22026;SDS011;11177;50.966;10.070;2023-07-22T11:06:52;3.85;;;3.50;;
22026;SDS011;11177;50.966;10.070;2023-07-22T11:12:16;5.63;;;3.60;;
22026;SDS011;11177;50.966;10.070;2023-07-22T11:14:46;4.28;;;3.88;;
22026;SDS011;11177;50.966;10.070;2023-07-22T11:17:14;4.63;;;3.75;;
22026;SDS011;11177;50.966;10.070;2023-07-22T11:19:41;4.57;;;4.13;;
22026;SDS011;11177;50.966;10.070;2023-07-22T11:22:08;4.07;;;3.67;;
22026;SDS011;11177;50.966;10.070;2023-07-22T11:24:35;3.67;;;3.38;;
22026;SDS011;11177;50.966;10.070;2023-07-22T11:27:03;3.95;;;3.55;;
22026;SDS011;11177;50.966;10.070;2023-07-22T11:29:31;5.55;;;3.53;;
22026;SDS011;11177;50.966;10.070;2023-07-22T11:31:58;5.47;;;3.28;;
22026;SDS011;11177;50.966;10.070;2023-07-22T11:34:25;4.72;;;3.47;;
22026;SDS011;11177;50.966;10.070;2023-07-22T11:36:53;4.38;;;3.60;;
22026;SDS011;11177;50.966;10.070;2023-07-22T11:39:22;7.50;;;3.65;;
22026;SDS011;11177;50.966;10.070;2023-07-22T11:41:50;3.60;;;3.30;;
22026;SDS011;11177;50.966;10.070;2023-07-22T11:44:18;3.17;;;2.85;;
22026;SDS011;11177;50.966;10.070;2023-07-22T11:49:24;4.07;;;2.93;;
22026;SDS011;11177;50.966;10.070;2023-07-22T11:51:55;3.50;;;2.70;;
22026;SDS011;11177;50.966;10.070;2023-07-22T11:54:27;3.10;;;2.80;;
22026;SDS011;11177;50.966;10.070;2023-07-22T11:56:55;5.03;;;2.88;;
22026;SDS011;11177;50.966;10.070;2023-07-22T11:59:32;9.25;;;2.90;;
22026;SDS011;11177;50.966;10.070;2023-07-22T12:02:00;3.60;;;2.92;;
22026;SDS011;11177;50.966;10.070;2023-07-22T12:04:28;3.85;;;3.53;;
22026;SDS011;11177;50.966;10.070;2023-07-22T12:06:55;3.10;;;2.80;;
22026;SDS011;11177;50.966;10.070;2023-07-22T12:09:23;3.15;;;2.80;;
22026;SDS011;11177;50.966;10.070;2023-07-22T12:11:57;3.78;;;2.80;;
22026;SDS011;11177;50.966;10.070;2023-07-22T12:14:32;3.97;;;2.92;;
22026;SDS011;11177;50.966;10.070;2023-07-22T12:17:01;3.25;;;2.80;;
22026;SDS011;11177;50.966;10.070;2023-07-22T12:19:28;4.32;;;3.10;;
22026;SDS011;11177;50.966;10.070;2023-07-22T12:21:56;3.55;;;2.92;;
22026;SDS011;11177;50.966;10.070;2023-07-22T12:24:23;3.67;;;2.70;;
22026;SDS011;11177;50.966;10.070;2023-07-22T12:26:50;3.20;;;2.90;;
22026;SDS011;11177;50.966;10.070;2023-07-22T12:29:17;4.88;;;2.90;;
22026;SDS011;11177;50.966;10.070;2023-07-22T12:31:44;4.63;;;2.90;;
22026;SDS011;11177;50.966;10.070;2023-07-22T12:34:11;4.15;;;2.92;;
22026;SDS011;11177;50.966;10.070;2023-07-22T12:36:38;3.28;;;2.97;;
22026;SDS011;11177;50.966;10.070;2023-07-22T12:39:06;4.10;;;3.05;;
22026;SDS011;11177;50.966;10.070;2023-07-22T12:41:33;3.40;;;3.10;;
22026;SDS011;11177;50.966;10.070;2023-07-22T12:44:00;3.30;;;3.00;;
22026;SDS011;11177;50.966;10.070;2023-07-22T12:46:26;5.25;;;2.90;;
22026;SDS011;11177;50.966;10.070;2023-07-22T12:48:53;3.08;;;2.60;;
22026;SDS011;11177;50.966;10.070;2023-07-22T12:51:20;3.72;;;2.50;;
22026;SDS011;11177;50.966;10.070;2023-07-22T12:53:47;4.90;;;2.90;;
22026;SDS011;11177;50.966;10.070;2023-07-22T12:56:14;4.30;;;2.92;;
22026;SDS011;11177;50.966;10.070;2023-07-22T12:58:41;4.18;;;2.95;;
22026;SDS011;11177;50.966;10.070;2023-07-22T13:01:08;3.10;;;2.63;;
22026;SDS011;11177;50.966;10.070;2023-07-22T13:03:34;4.45;;;3.10;;
22026;SDS011;11177;50.966;10.070;2023-07-22T13:06:01;3.97;;;3.05;;
22026;SDS011;11177;50.966;10.070;2023-07-22T13:08:28;3.30;;;2.97;;
22026;SDS011;11177;50.966;10.070;2023-07-22T13:10:55;6.70;;;3.03;;
22026;SDS011;11177;50.966;10.070;2023-07-22T13:13:22;3.35;;;3.03;;
22026;SDS011;11177;50.966;10.070;2023-07-22T13:15:49;4.15;;;3.05;;
22026;SDS011;11177;50.966;10.070;2023-07-22T13:18:15;3.72;;;2.97;;
22026;SDS011;11177;50.966;10.070;2023-07-22T13:20:43;4.40;;;3.28;;
22026;SDS011;11177;50.966;10.070;2023-07-22T13:23:10;3.55;;;3.20;;
22026;SDS011;11177;50.966;10.070;2023-07-22T13:25:36;5.13;;;3.33;;
22026;SDS011;11177;50.966;10.070;2023-07-22T13:28:03;3.97;;;3.38;;
22026;SDS011;11177;50.966;10.070;2023-07-22T13:30:30;3.95;;;3.30;;
22026;SDS011;11177;50.966;10.070;2023-07-22T13:32:57;3.70;;;3.40;;
22026;SDS011;11177;50.966;10.070;2023-07-22T13:35:24;5.70;;;3.58;;
22026;SDS011;11177;50.966;10.070;2023-07-22T13:37:50;6.15;;;3.55;;
22026;SDS011;11177;50.966;10.070;2023-07-22T13:40:17;3.38;;;3.00;;
22026;SDS011;11177;50.966;10.070;2023-07-22T13:42:44;3.67;;;3.25;;
22026;SDS011;11177;50.966;10.070;2023-07-22T13:45:11;6.20;;;3.33;;
22026;SDS011;11177;50.966;10.070;2023-07-22T13:47:38;4.57;;;3.30;;
22026;SDS011;11177;50.966;10.070;2023-07-22T13:50:05;4.40;;;2.92;;
22026;SDS011;11177;50.966;10.070;2023-07-22T13:52:32;4.55;;;3.30;;
22026;SDS011;11177;50.966;10.070;2023-07-22T13:54:59;4.13;;;3.13;;
22026;SDS011;11177;50.966;10.070;2023-07-22T13:57:27;4.43;;;3.25;;
22026;SDS011;11177;50.966;10.070;2023-07-22T13:59:54;3.28;;;2.97;;
22026;SDS011;11177;50.966;10.070;2023-07-22T14:02:21;4.65;;;2.95;;
22026;SDS011;11177;50.966;10.070;2023-07-22T14:04:48;3.78;;;3.20;;
22026;SDS011;11177;50.966;10.070;2023-07-22T14:07:15;4.57;;;3.17;;
22026;SDS011;11177;50.966;10.070;2023-07-22T14:09:42;3.70;;;3.10;;
22026;SDS011;11177;50.966;10.070;2023-07-22T14:12:09;3.80;;;3.40;;
22026;SDS011;11177;50.966;10.070;2023-07-22T14:14:36;4.35;;;3.30;;
22026;SDS011;11177;50.966;10.070;2023-07-22T14:17:03;3.60;;;3.20;;
22026;SDS011;11177;50.966;10.070;2023-07-22T14:19:31;3.55;;;3.10;;
22026;SDS011;11177;50.966;10.070;2023-07-22T14:21:58;5.20;;;3.30;;
22026;SDS011;11177;50.966;10.070;2023-07-22T14:24:25;4.85;;;3.50;;
22026;SDS011;11177;50.966;10.070;2023-07-22T14:26:52;5.93;;;3.42;;
22026;SDS011;11177;50.966;10.070;2023-07-22T14:29:18;6.10;;;3.85;;
22026;SDS011;11177;50.966;10.070;2023-07-22T14:31:47;6.10;;;3.58;;
22026;SDS011;11177;50.966;10.070;2023-07-22T14:34:14;4.47;;;3.63;;
22026;SDS011;11177;50.966;10.070;2023-07-22T14:36:40;4.70;;;3.50;;
22026;SDS011;11177;50.966;10.070;2023-07-22T14:39:10;5.97;;;3.58;;
22026;SDS011;11177;50.966;10.070;2023-07-22T14:41:37;6.20;;;3.20;;
22026;SDS011;11177;50.966;10.070;2023-07-22T14:44:04;4.03;;;3.38;;
22026;SDS011;11177;50.966;10.070;2023-07-22T14:46:31;5.97;;;3.35;;
22026;SDS011;11177;50.966;10.070;2023-07-22T14:48:58;3.65;;;3.35;;
22026;SDS011;11177;50.966;10.070;2023-07-22T14:51:25;6.78;;;3.45;;
22026;SDS011;11177;50.966;10.070;2023-07-22T14:53:52;4.82;;;3.88;;